sensor_id;sensor_type;location;lat;lon;timestamp;P1;P2;P0
70915;PMS5003;58557;50.982;-3.222;2023-07-31T00:01:55;1;1;
70915;PMS5003;58557;50.982;-3.222;2023-07-31T00:04:21;2;2;
70915;PMS5003;58557;50.982;-3.222;2023-07-31T00:06:47;2;2;
70915;PMS5003;58557;50.982;-3.222;2023-07-31T00:09:12;2;2;
70915;PMS5003;58557;50.982;-3.222;2023-07-31T00:11:38;4;3;
70915;PMS5003;58557;50.982;-3.222;2023-07-31T00:14:04;2;2;
70915;PMS5003;58557;50.982;-3.222;2023-07-31T00:16:29;1;1;
70915;PMS5003;58557;50.982;-3.222;2023-07-31T00:18:54;1;1;
70915;PMS5003;58557;50.982;-3.222;2023-07-31T00:21:20;2;2;
70915;PMS5003;58557;50.982;-3.222;2023-07-31T00:23:45;2;2;
70915;PMS5003;58557;50.982;-3.222;2023-07-31T00:26:11;1;1;
70915;PMS5003;58557;50.982;-3.222;2023-07-31T00:28:37;1;1;
70915;PMS5003;58557;50.982;-3.222;2023-07-31T00:31:02;1;1;
70915;PMS5003;58557;50.982;-3.222;2023-07-31T00:33:28;1;1;
70915;PMS5003;58557;50.982;-3.222;2023-07-31T00:35:54;1;1;
70915;PMS5003;58557;50.982;-3.222;2023-07-31T00:38:19;2;0;
70915;PMS5003;58557;50.982;-3.222;2023-07-31T00:40:45;0;0;
70915;PMS5003;58557;50.982;-3.222;2023-07-31T00:43:11;0;0;
70915;PMS5003;58557;50.982;-3.222;2023-07-31T00:45:36;1;1;
70915;PMS5003;58557;50.982;-3.222;2023-07-31T00:48:02;1;0;
70915;PMS5003;58557;50.982;-3.222;2023-07-31T00:50:27;0;0;
70915;PMS5003;58557;50.982;-3.222;2023-07-31T00:52:53;1;1;
70915;PMS5003;58557;50.982;-3.222;2023-07-31T00:55:19;0;0;
70915;PMS5003;58557;50.982;-3.222;2023-07-31T00:57:45;1;1;
70915;PMS5003;58557;50.982;-3.222;2023-07-31T01:00:10;1;0;
70915;PMS5003;58557;50.982;-3.222;2023-07-31T01:02:36;0;0;
70915;PMS5003;58557;50.982;-3.222;2023-07-31T01:05:01;0;0;
70915;PMS5003;58557;50.982;-3.222;2023-07-31T01:07:30;0;0;
70915;PMS5003;58557;50.982;-3.222;2023-07-31T01:09:55;0;0;
70915;PMS5003;58557;50.982;-3.222;2023-07-31T01:12:18;0;0;
70915;PMS5003;58557;50.982;-3.222;2023-07-31T01:17:09;0;0;
70915;PMS5003;58557;50.982;-3.222;2023-07-31T01:19:35;2;0;
70915;PMS5003;58557;50.982;-3.222;2023-07-31T01:22:08;0;0;
70915;PMS5003;58557;50.982;-3.222;2023-07-31T01:24:28;0;0;
70915;PMS5003;58557;50.982;-3.222;2023-07-31T01:26:54;0;0;
70915;PMS5003;58557;50.982;-3.222;2023-07-31T01:29:20;0;0;
70915;PMS5003;58557;50.982;-3.222;2023-07-31T01:31:43;0;0;
70915;PMS5003;58557;50.982;-3.222;2023-07-31T01:34:09;0;0;
70915;PMS5003;58557;50.982;-3.222;2023-07-31T01:36:34;0;0;
70915;PMS5003;58557;50.982;-3.222;2023-07-31T01:39:00;1;0;
70915;PMS5003;58557;50.982;-3.222;2023-07-31T01:41:26;0;0;
70915;PMS5003;58557;50.982;-3.222;2023-07-31T01:43:51;0;0;
70915;PMS5003;58557;50.982;-3.222;2023-07-31T01:46:17;0;0;
70915;PMS5003;58557;50.982;-3.222;2023-07-31T01:48:43;0;0;
70915;PMS5003;58557;50.982;-3.222;2023-07-31T01:51:08;0;0;
70915;PMS5003;58557;50.982;-3.222;2023-07-31T01:53:34;0;0;
70915;PMS5003;58557;50.982;-3.222;2023-07-31T01:55:59;0;0;
70915;PMS5003;58557;50.982;-3.222;2023-07-31T01:58:25;0;0;
70915;PMS5003;58557;50.982;-3.222;2023-07-31T02:00:50;0;0;
70915;PMS5003;58557;50.982;-3.222;2023-07-31T02:03:16;0;0;
70915;PMS5003;58557;50.982;-3.222;2023-07-31T02:05:44;0;0;
70915;PMS5003;58557;50.982;-3.222;2023-07-31T02:08:07;0;0;
70915;PMS5003;58557;50.982;-3.222;2023-07-31T02:10:33;0;0;
70915;PMS5003;58557;50.982;-3.222;2023-07-31T02:12:59;0;0;
70915;PMS5003;58557;50.982;-3.222;2023-07-31T02:15:24;0;0;
70915;PMS5003;58557;50.982;-3.222;2023-07-31T02:17:50;0;0;
70915;PMS5003;58557;50.982;-3.222;2023-07-31T02:20:15;0;0;
70915;PMS5003;58557;50.982;-3.222;2023-07-31T02:22:41;0;0;
70915;PMS5003;58557;50.982;-3.222;2023-07-31T02:25:07;0;0;
70915;PMS5003;58557;50.982;-3.222;2023-07-31T02:27:32;0;0;
70915;PMS5003;58557;50.982;-3.222;2023-07-31T02:29:58;1;1;
70915;PMS5003;58557;50.982;-3.222;2023-07-31T02:32:24;1;1;
70915;PMS5003;58557;50.982;-3.222;2023-07-31T02:34:49;0;0;
70915;PMS5003;58557;50.982;-3.222;2023-07-31T02:37:15;2;1;
70915;PMS5003;58557;50.982;-3.222;2023-07-31T02:39:40;2;2;
70915;PMS5003;58557;50.982;-3.222;2023-07-31T02:42:06;0;0;
70915;PMS5003;58557;50.982;-3.222;2023-07-31T02:44:31;1;1;
70915;PMS5003;58557;50.982;-3.222;2023-07-31T02:46:57;1;1;
70915;PMS5003;58557;50.982;-3.222;2023-07-31T02:49:23;2;1;
70915;PMS5003;58557;50.982;-3.222;2023-07-31T02:51:48;1;1;
70915;PMS5003;58557;50.982;-3.222;2023-07-31T02:54:14;1;1;
70915;PMS5003;58557;50.982;-3.222;2023-07-31T02:56:40;0;0;
70915;PMS5003;58557;50.982;-3.222;2023-07-31T02:59:05;0;0;
70915;PMS5003;58557;50.982;-3.222;2023-07-31T03:01:31;2;2;
70915;PMS5003;58557;50.982;-3.222;2023-07-31T03:03:56;0;0;
70915;PMS5003;58557;50.982;-3.222;2023-07-31T03:06:22;3;1;
70915;PMS5003;58557;50.982;-3.222;2023-07-31T03:08:48;0;0;
70915;PMS5003;58557;50.982;-3.222;2023-07-31T03:11:13;1;1;
70915;PMS5003;58557;50.982;-3.222;2023-07-31T03:13:39;1;1;
70915;PMS5003;58557;50.982;-3.222;2023-07-31T03:16:04;1;1;
70915;PMS5003;58557;50.982;-3.222;2023-07-31T03:18:30;1;1;
70915;PMS5003;58557;50.982;-3.222;2023-07-31T03:20:55;1;1;
70915;PMS5003;58557;50.982;-3.222;2023-07-31T03:23:21;1;1;
70915;PMS5003;58557;50.982;-3.222;2023-07-31T03:25:55;2;1;
70915;PMS5003;58557;50.982;-3.222;2023-07-31T03:28:12;1;0;
70915;PMS5003;58557;50.982;-3.222;2023-07-31T03:30:38;0;0;
70915;PMS5003;58557;50.982;-3.222;2023-07-31T03:33:03;1;1;
70915;PMS5003;58557;50.982;-3.222;2023-07-31T03:35:29;0;0;
70915;PMS5003;58557;50.982;-3.222;2023-07-31T03:37:55;1;1;
70915;PMS5003;58557;50.982;-3.222;2023-07-31T03:40:20;1;0;
70915;PMS5003;58557;50.982;-3.222;2023-07-31T03:42:46;0;0;
70915;PMS5003;58557;50.982;-3.222;2023-07-31T03:45:11;2;2;
70915;PMS5003;58557;50.982;-3.222;2023-07-31T03:47:37;0;0;
70915;PMS5003;58557;50.982;-3.222;2023-07-31T03:50:03;2;0;
70915;PMS5003;58557;50.982;-3.222;2023-07-31T03:52:28;0;0;
70915;PMS5003;58557;50.982;-3.222;2023-07-31T03:54:54;2;0;
70915;PMS5003;58557;50.982;-3.222;2023-07-31T03:57:19;1;1;
70915;PMS5003;58557;50.982;-3.222;2023-07-31T03:59:45;0;0;
70915;PMS5003;58557;50.982;-3.222;2023-07-31T04:02:11;1;1;
70915;PMS5003;58557;50.982;-3.222;2023-07-31T04:04:36;0;0;
70915;PMS5003;58557;50.982;-3.222;2023-07-31T04:07:02;2;2;
70915;PMS5003;58557;50.982;-3.222;2023-07-31T04:09:27;3;1;
70915;PMS5003;58557;50.982;-3.222;2023-07-31T04:11:53;0;0;
70915;PMS5003;58557;50.982;-3.222;2023-07-31T04:14:19;0;0;
70915;PMS5003;58557;50.982;-3.222;2023-07-31T04:16:44;1;1;
70915;PMS5003;58557;50.982;-3.222;2023-07-31T04:19:10;0;0;
70915;PMS5003;58557;50.982;-3.222;2023-07-31T04:21:35;1;1;
70915;PMS5003;58557;50.982;-3.222;2023-07-31T04:24:01;2;0;
70915;PMS5003;58557;50.982;-3.222;2023-07-31T04:26:26;1;1;
70915;PMS5003;58557;50.982;-3.222;2023-07-31T04:28:52;1;1;
70915;PMS5003;58557;50.982;-3.222;2023-07-31T04:31:18;0;0;
70915;PMS5003;58557;50.982;-3.222;2023-07-31T04:33:43;0;0;
70915;PMS5003;58557;50.982;-3.222;2023-07-31T04:36:09;1;1;
70915;PMS5003;58557;50.982;-3.222;2023-07-31T04:38:35;1;0;
70915;PMS5003;58557;50.982;-3.222;2023-07-31T04:41:00;2;2;
70915;PMS5003;58557;50.982;-3.222;2023-07-31T04:43:26;1;1;
70915;PMS5003;58557;50.982;-3.222;2023-07-31T04:45:51;1;1;
70915;PMS5003;58557;50.982;-3.222;2023-07-31T04:48:17;1;1;
70915;PMS5003;58557;50.982;-3.222;2023-07-31T04:50:42;0;0;
70915;PMS5003;58557;50.982;-3.222;2023-07-31T04:53:08;2;2;
70915;PMS5003;58557;50.982;-3.222;2023-07-31T04:55:34;0;0;
70915;PMS5003;58557;50.982;-3.222;2023-07-31T04:57:59;0;0;
70915;PMS5003;58557;50.982;-3.222;2023-07-31T05:00:25;0;0;
70915;PMS5003;58557;50.982;-3.222;2023-07-31T05:02:50;0;0;
70915;PMS5003;58557;50.982;-3.222;2023-07-31T05:05:16;0;0;
70915;PMS5003;58557;50.982;-3.222;2023-07-31T05:07:41;0;0;
70915;PMS5003;58557;50.982;-3.222;2023-07-31T05:10:07;0;0;
70915;PMS5003;58557;50.982;-3.222;2023-07-31T05:12:33;0;0;
70915;PMS5003;58557;50.982;-3.222;2023-07-31T05:14:58;1;1;
70915;PMS5003;58557;50.982;-3.222;2023-07-31T05:17:24;1;0;
70915;PMS5003;58557;50.982;-3.222;2023-07-31T05:19:50;0;0;
70915;PMS5003;58557;50.982;-3.222;2023-07-31T05:22:15;0;0;
70915;PMS5003;58557;50.982;-3.222;2023-07-31T05:24:41;0;0;
70915;PMS5003;58557;50.982;-3.222;2023-07-31T05:27:07;0;0;
70915;PMS5003;58557;50.982;-3.222;2023-07-31T05:29:32;1;1;
70915;PMS5003;58557;50.982;-3.222;2023-07-31T05:31:58;2;2;
70915;PMS5003;58557;50.982;-3.222;2023-07-31T05:34:23;2;0;
70915;PMS5003;58557;50.982;-3.222;2023-07-31T05:36:49;1;1;
70915;PMS5003;58557;50.982;-3.222;2023-07-31T05:39:15;3;2;
70915;PMS5003;58557;50.982;-3.222;2023-07-31T05:41:40;2;2;
70915;PMS5003;58557;50.982;-3.222;2023-07-31T05:44:06;1;1;
70915;PMS5003;58557;50.982;-3.222;2023-07-31T05:46:32;2;2;
70915;PMS5003;58557;50.982;-3.222;2023-07-31T05:48:58;2;1;
70915;PMS5003;58557;50.982;-3.222;2023-07-31T05:51:23;2;2;
70915;PMS5003;58557;50.982;-3.222;2023-07-31T05:53:48;2;2;
70915;PMS5003;58557;50.982;-3.222;2023-07-31T05:56:14;3;1;
70915;PMS5003;58557;50.982;-3.222;2023-07-31T05:58:39;3;3;
70915;PMS5003;58557;50.982;-3.222;2023-07-31T06:01:05;3;2;
70915;PMS5003;58557;50.982;-3.222;2023-07-31T06:03:31;2;2;
70915;PMS5003;58557;50.982;-3.222;2023-07-31T06:05:56;3;1;
70915;PMS5003;58557;50.982;-3.222;2023-07-31T06:08:22;1;1;
70915;PMS5003;58557;50.982;-3.222;2023-07-31T06:10:48;2;2;
70915;PMS5003;58557;50.982;-3.222;2023-07-31T06:13:13;5;5;
70915;PMS5003;58557;50.982;-3.222;2023-07-31T06:15:39;2;2;
70915;PMS5003;58557;50.982;-3.222;2023-07-31T06:18:04;1;1;
70915;PMS5003;58557;50.982;-3.222;2023-07-31T06:20:30;3;1;
70915;PMS5003;58557;50.982;-3.222;2023-07-31T06:22:55;1;1;
70915;PMS5003;58557;50.982;-3.222;2023-07-31T06:25:21;3;2;
70915;PMS5003;58557;50.982;-3.222;2023-07-31T06:27:47;1;1;
70915;PMS5003;58557;50.982;-3.222;2023-07-31T06:30:12;3;2;
70915;PMS5003;58557;50.982;-3.222;2023-07-31T06:32:38;2;2;
70915;PMS5003;58557;50.982;-3.222;2023-07-31T06:35:04;1;1;
70915;PMS5003;58557;50.982;-3.222;2023-07-31T06:37:29;3;3;
70915;PMS5003;58557;50.982;-3.222;2023-07-31T06:39:55;4;4;
70915;PMS5003;58557;50.982;-3.222;2023-07-31T06:42:21;3;3;
70915;PMS5003;58557;50.982;-3.222;2023-07-31T06:44:46;3;3;
70915;PMS5003;58557;50.982;-3.222;2023-07-31T06:47:12;4;2;
70915;PMS5003;58557;50.982;-3.222;2023-07-31T06:49:37;3;2;
70915;PMS5003;58557;50.982;-3.222;2023-07-31T06:52:03;3;2;
70915;PMS5003;58557;50.982;-3.222;2023-07-31T06:54:28;5;5;
70915;PMS5003;58557;50.982;-3.222;2023-07-31T06:56:54;3;3;
70915;PMS5003;58557;50.982;-3.222;2023-07-31T06:59:19;3;3;
70915;PMS5003;58557;50.982;-3.222;2023-07-31T07:01:45;4;4;
70915;PMS5003;58557;50.982;-3.222;2023-07-31T07:04:10;4;4;
70915;PMS5003;58557;50.982;-3.222;2023-07-31T07:06:36;5;4;
70915;PMS5003;58557;50.982;-3.222;2023-07-31T07:09:02;4;4;
70915;PMS5003;58557;50.982;-3.222;2023-07-31T07:11:27;4;4;
70915;PMS5003;58557;50.982;-3.222;2023-07-31T07:13:53;5;3;
70915;PMS5003;58557;50.982;-3.222;2023-07-31T07:16:19;6;5;
70915;PMS5003;58557;50.982;-3.222;2023-07-31T07:18:44;3;3;
70915;PMS5003;58557;50.982;-3.222;2023-07-31T07:21:09;4;4;
70915;PMS5003;58557;50.982;-3.222;2023-07-31T07:23:35;6;5;
70915;PMS5003;58557;50.982;-3.222;2023-07-31T07:26:00;4;4;
70915;PMS5003;58557;50.982;-3.222;2023-07-31T07:28:26;5;5;
70915;PMS5003;58557;50.982;-3.222;2023-07-31T07:30:51;7;5;
70915;PMS5003;58557;50.982;-3.222;2023-07-31T07:33:17;4;4;
70915;PMS5003;58557;50.982;-3.222;2023-07-31T07:35:42;6;5;
70915;PMS5003;58557;50.982;-3.222;2023-07-31T07:38:08;2;2;
70915;PMS5003;58557;50.982;-3.222;2023-07-31T07:40:38;4;4;
70915;PMS5003;58557;50.982;-3.222;2023-07-31T07:42:59;3;2;
70915;PMS5003;58557;50.982;-3.222;2023-07-31T07:45:25;6;5;
70915;PMS5003;58557;50.982;-3.222;2023-07-31T07:47:50;7;6;
70915;PMS5003;58557;50.982;-3.222;2023-07-31T07:50:16;6;6;
70915;PMS5003;58557;50.982;-3.222;2023-07-31T07:52:41;5;5;
70915;PMS5003;58557;50.982;-3.222;2023-07-31T07:55:07;6;5;
70915;PMS5003;58557;50.982;-3.222;2023-07-31T07:57:33;6;5;
70915;PMS5003;58557;50.982;-3.222;2023-07-31T07:59:58;6;5;
70915;PMS5003;58557;50.982;-3.222;2023-07-31T08:02:23;7;6;
70915;PMS5003;58557;50.982;-3.222;2023-07-31T08:04:49;5;3;
70915;PMS5003;58557;50.982;-3.222;2023-07-31T08:07:15;5;4;
70915;PMS5003;58557;50.982;-3.222;2023-07-31T08:09:40;4;4;
70915;PMS5003;58557;50.982;-3.222;2023-07-31T08:12:06;6;6;
70915;PMS5003;58557;50.982;-3.222;2023-07-31T08:14:31;7;7;
70915;PMS5003;58557;50.982;-3.222;2023-07-31T08:16:57;8;4;
70915;PMS5003;58557;50.982;-3.222;2023-07-31T08:19:22;8;6;
70915;PMS5003;58557;50.982;-3.222;2023-07-31T08:21:48;5;5;
70915;PMS5003;58557;50.982;-3.222;2023-07-31T08:24:13;5;5;
70915;PMS5003;58557;50.982;-3.222;2023-07-31T08:26:39;8;8;
70915;PMS5003;58557;50.982;-3.222;2023-07-31T08:29:04;4;4;
70915;PMS5003;58557;50.982;-3.222;2023-07-31T08:31:30;6;6;
70915;PMS5003;58557;50.982;-3.222;2023-07-31T08:33:55;6;5;
70915;PMS5003;58557;50.982;-3.222;2023-07-31T08:36:21;6;6;
70915;PMS5003;58557;50.982;-3.222;2023-07-31T08:38:47;10;8;
70915;PMS5003;58557;50.982;-3.222;2023-07-31T08:41:12;10;6;
70915;PMS5003;58557;50.982;-3.222;2023-07-31T08:43:38;9;8;
70915;PMS5003;58557;50.982;-3.222;2023-07-31T08:46:04;9;7;
70915;PMS5003;58557;50.982;-3.222;2023-07-31T08:48:29;7;7;
70915;PMS5003;58557;50.982;-3.222;2023-07-31T08:50:54;8;5;
70915;PMS5003;58557;50.982;-3.222;2023-07-31T08:53:20;9;8;
70915;PMS5003;58557;50.982;-3.222;2023-07-31T08:55:45;10;8;
70915;PMS5003;58557;50.982;-3.222;2023-07-31T08:58:11;11;7;
70915;PMS5003;58557;50.982;-3.222;2023-07-31T09:00:36;9;8;
70915;PMS5003;58557;50.982;-3.222;2023-07-31T09:03:02;9;9;
70915;PMS5003;58557;50.982;-3.222;2023-07-31T09:05:28;14;12;
70915;PMS5003;58557;50.982;-3.222;2023-07-31T09:07:53;9;7;
70915;PMS5003;58557;50.982;-3.222;2023-07-31T09:10:19;14;11;
70915;PMS5003;58557;50.982;-3.222;2023-07-31T09:12:44;10;8;
70915;PMS5003;58557;50.982;-3.222;2023-07-31T09:15:10;9;9;
70915;PMS5003;58557;50.982;-3.222;2023-07-31T09:17:36;10;10;
70915;PMS5003;58557;50.982;-3.222;2023-07-31T09:22:31;12;10;
70915;PMS5003;58557;50.982;-3.222;2023-07-31T09:24:52;9;9;
70915;PMS5003;58557;50.982;-3.222;2023-07-31T09:27:17;14;11;
70915;PMS5003;58557;50.982;-3.222;2023-07-31T09:29:43;14;12;
70915;PMS5003;58557;50.982;-3.222;2023-07-31T09:32:12;14;14;
70915;PMS5003;58557;50.982;-3.222;2023-07-31T09:34:36;18;15;
70915;PMS5003;58557;50.982;-3.222;2023-07-31T09:37:01;13;10;
70915;PMS5003;58557;50.982;-3.222;2023-07-31T09:39:24;10;9;
70915;PMS5003;58557;50.982;-3.222;2023-07-31T09:41:53;16;16;
70915;PMS5003;58557;50.982;-3.222;2023-07-31T09:44:15;10;10;
70915;PMS5003;58557;50.982;-3.222;2023-07-31T09:46:41;12;11;
70915;PMS5003;58557;50.982;-3.222;2023-07-31T09:49:07;12;9;
70915;PMS5003;58557;50.982;-3.222;2023-07-31T09:51:32;10;10;
70915;PMS5003;58557;50.982;-3.222;2023-07-31T09:53:58;12;10;
70915;PMS5003;58557;50.982;-3.222;2023-07-31T09:56:24;11;11;
70915;PMS5003;58557;50.982;-3.222;2023-07-31T09:58:49;17;14;
70915;PMS5003;58557;50.982;-3.222;2023-07-31T10:01:15;12;10;
70915;PMS5003;58557;50.982;-3.222;2023-07-31T10:03:40;17;13;
70915;PMS5003;58557;50.982;-3.222;2023-07-31T10:06:05;13;10;
70915;PMS5003;58557;50.982;-3.222;2023-07-31T10:08:32;15;8;
70915;PMS5003;58557;50.982;-3.222;2023-07-31T10:10:58;17;14;
70915;PMS5003;58557;50.982;-3.222;2023-07-31T10:13:22;17;15;
70915;PMS5003;58557;50.982;-3.222;2023-07-31T10:15:48;12;12;
70915;PMS5003;58557;50.982;-3.222;2023-07-31T10:18:13;10;9;
70915;PMS5003;58557;50.982;-3.222;2023-07-31T10:20:38;14;9;
70915;PMS5003;58557;50.982;-3.222;2023-07-31T10:23:04;16;11;
70915;PMS5003;58557;50.982;-3.222;2023-07-31T10:25:29;11;10;
70915;PMS5003;58557;50.982;-3.222;2023-07-31T10:27:55;15;12;
70915;PMS5003;58557;50.982;-3.222;2023-07-31T10:30:21;16;12;
70915;PMS5003;58557;50.982;-3.222;2023-07-31T10:32:46;12;10;
70915;PMS5003;58557;50.982;-3.222;2023-07-31T10:35:11;13;13;
70915;PMS5003;58557;50.982;-3.222;2023-07-31T10:37:38;15;12;
70915;PMS5003;58557;50.982;-3.222;2023-07-31T10:40:03;18;13;
70915;PMS5003;58557;50.982;-3.222;2023-07-31T10:42:29;12;9;
70915;PMS5003;58557;50.982;-3.222;2023-07-31T10:44:55;14;14;
70915;PMS5003;58557;50.982;-3.222;2023-07-31T10:47:18;15;12;
70915;PMS5003;58557;50.982;-3.222;2023-07-31T10:49:44;15;11;
70915;PMS5003;58557;50.982;-3.222;2023-07-31T10:52:10;16;14;
70915;PMS5003;58557;50.982;-3.222;2023-07-31T10:54:35;15;14;
70915;PMS5003;58557;50.982;-3.222;2023-07-31T10:57:00;13;11;
70915;PMS5003;58557;50.982;-3.222;2023-07-31T10:59:26;17;15;
70915;PMS5003;58557;50.982;-3.222;2023-07-31T11:01:50;9;9;
70915;PMS5003;58557;50.982;-3.222;2023-07-31T11:04:16;14;12;
70915;PMS5003;58557;50.982;-3.222;2023-07-31T11:06:41;11;10;
70915;PMS5003;58557;50.982;-3.222;2023-07-31T11:09:07;11;11;
70915;PMS5003;58557;50.982;-3.222;2023-07-31T11:11:31;10;9;
70915;PMS5003;58557;50.982;-3.222;2023-07-31T11:13:56;18;14;
70915;PMS5003;58557;50.982;-3.222;2023-07-31T11:16:22;14;10;
70915;PMS5003;58557;50.982;-3.222;2023-07-31T11:18:47;13;11;
70915;PMS5003;58557;50.982;-3.222;2023-07-31T11:21:13;16;14;
70915;PMS5003;58557;50.982;-3.222;2023-07-31T11:23:37;12;11;
70915;PMS5003;58557;50.982;-3.222;2023-07-31T11:26:02;17;15;
70915;PMS5003;58557;50.982;-3.222;2023-07-31T11:28:31;13;10;
70915;PMS5003;58557;50.982;-3.222;2023-07-31T11:30:54;17;14;
70915;PMS5003;58557;50.982;-3.222;2023-07-31T11:33:18;15;14;
70915;PMS5003;58557;50.982;-3.222;2023-07-31T11:35:45;13;11;
70915;PMS5003;58557;50.982;-3.222;2023-07-31T11:38:10;15;15;
70915;PMS5003;58557;50.982;-3.222;2023-07-31T11:43:04;12;12;
70915;PMS5003;58557;50.982;-3.222;2023-07-31T11:45:27;14;12;
70915;PMS5003;58557;50.982;-3.222;2023-07-31T11:47:51;16;12;
70915;PMS5003;58557;50.982;-3.222;2023-07-31T11:50:17;14;12;
70915;PMS5003;58557;50.982;-3.222;2023-07-31T11:52:43;17;12;
70915;PMS5003;58557;50.982;-3.222;2023-07-31T11:55:08;14;11;
70915;PMS5003;58557;50.982;-3.222;2023-07-31T11:57:32;18;15;
70915;PMS5003;58557;50.982;-3.222;2023-07-31T11:59:58;20;15;
70915;PMS5003;58557;50.982;-3.222;2023-07-31T12:02:24;15;11;
70915;PMS5003;58557;50.982;-3.222;2023-07-31T12:04:49;13;11;
70915;PMS5003;58557;50.982;-3.222;2023-07-31T12:07:15;12;10;
70915;PMS5003;58557;50.982;-3.222;2023-07-31T12:12:08;17;16;
70915;PMS5003;58557;50.982;-3.222;2023-07-31T12:14:30;20;17;
70915;PMS5003;58557;50.982;-3.222;2023-07-31T12:16:56;17;12;
70915;PMS5003;58557;50.982;-3.222;2023-07-31T12:19:21;17;17;
70915;PMS5003;58557;50.982;-3.222;2023-07-31T12:21:46;14;12;
70915;PMS5003;58557;50.982;-3.222;2023-07-31T12:24:11;22;16;
70915;PMS5003;58557;50.982;-3.222;2023-07-31T12:26:37;12;12;
70915;PMS5003;58557;50.982;-3.222;2023-07-31T12:29:05;14;14;
70915;PMS5003;58557;50.982;-3.222;2023-07-31T12:31:28;15;12;
70915;PMS5003;58557;50.982;-3.222;2023-07-31T12:33:54;17;17;
70915;PMS5003;58557;50.982;-3.222;2023-07-31T12:36:20;13;13;
70915;PMS5003;58557;50.982;-3.222;2023-07-31T12:38:45;12;10;
70915;PMS5003;58557;50.982;-3.222;2023-07-31T12:41:10;13;12;
70915;PMS5003;58557;50.982;-3.222;2023-07-31T12:43:36;14;11;
70915;PMS5003;58557;50.982;-3.222;2023-07-31T12:46:00;18;16;
70915;PMS5003;58557;50.982;-3.222;2023-07-31T12:48:26;12;9;
70915;PMS5003;58557;50.982;-3.222;2023-07-31T12:50:51;14;12;
70915;PMS5003;58557;50.982;-3.222;2023-07-31T12:53:16;14;13;
70915;PMS5003;58557;50.982;-3.222;2023-07-31T12:55:42;14;12;
70915;PMS5003;58557;50.982;-3.222;2023-07-31T12:58:08;13;11;
70915;PMS5003;58557;50.982;-3.222;2023-07-31T13:00:33;12;12;
70915;PMS5003;58557;50.982;-3.222;2023-07-31T13:02:57;12;11;
70915;PMS5003;58557;50.982;-3.222;2023-07-31T13:05:23;12;10;
70915;PMS5003;58557;50.982;-3.222;2023-07-31T13:07:48;12;11;
70915;PMS5003;58557;50.982;-3.222;2023-07-31T13:10:13;19;14;
70915;PMS5003;58557;50.982;-3.222;2023-07-31T13:12:38;13;11;
70915;PMS5003;58557;50.982;-3.222;2023-07-31T13:15:04;11;10;
70915;PMS5003;58557;50.982;-3.222;2023-07-31T13:17:29;15;11;
70915;PMS5003;58557;50.982;-3.222;2023-07-31T13:19:55;13;9;
70915;PMS5003;58557;50.982;-3.222;2023-07-31T13:22:20;14;14;
70915;PMS5003;58557;50.982;-3.222;2023-07-31T13:24:45;11;10;
70915;PMS5003;58557;50.982;-3.222;2023-07-31T13:27:11;12;12;
70915;PMS5003;58557;50.982;-3.222;2023-07-31T13:29:36;17;12;
70915;PMS5003;58557;50.982;-3.222;2023-07-31T13:32:02;13;12;
70915;PMS5003;58557;50.982;-3.222;2023-07-31T13:34:27;10;9;
70915;PMS5003;58557;50.982;-3.222;2023-07-31T13:36:54;11;11;
70915;PMS5003;58557;50.982;-3.222;2023-07-31T13:39:18;14;12;
70915;PMS5003;58557;50.982;-3.222;2023-07-31T13:41:44;17;13;
70915;PMS5003;58557;50.982;-3.222;2023-07-31T13:44:09;18;13;
70915;PMS5003;58557;50.982;-3.222;2023-07-31T13:46:35;13;11;
70915;PMS5003;58557;50.982;-3.222;2023-07-31T13:49:00;18;15;
70915;PMS5003;58557;50.982;-3.222;2023-07-31T13:51:26;14;10;
70915;PMS5003;58557;50.982;-3.222;2023-07-31T13:53:51;12;10;
70915;PMS5003;58557;50.982;-3.222;2023-07-31T13:56:17;13;11;
70915;PMS5003;58557;50.982;-3.222;2023-07-31T13:58:42;13;11;
70915;PMS5003;58557;50.982;-3.222;2023-07-31T14:01:07;19;18;
70915;PMS5003;58557;50.982;-3.222;2023-07-31T14:03:33;17;13;
70915;PMS5003;58557;50.982;-3.222;2023-07-31T14:05:58;11;10;
70915;PMS5003;58557;50.982;-3.222;2023-07-31T14:08:23;20;14;
70915;PMS5003;58557;50.982;-3.222;2023-07-31T14:10:48;22;18;
70915;PMS5003;58557;50.982;-3.222;2023-07-31T14:13:14;11;10;
70915;PMS5003;58557;50.982;-3.222;2023-07-31T14:15:41;14;14;
70915;PMS5003;58557;50.982;-3.222;2023-07-31T14:18:05;13;11;
70915;PMS5003;58557;50.982;-3.222;2023-07-31T14:20:30;12;11;
70915;PMS5003;58557;50.982;-3.222;2023-07-31T14:22:55;10;10;
70915;PMS5003;58557;50.982;-3.222;2023-07-31T14:25:21;8;8;
70915;PMS5003;58557;50.982;-3.222;2023-07-31T14:27:47;13;9;
70915;PMS5003;58557;50.982;-3.222;2023-07-31T14:30:12;11;8;
70915;PMS5003;58557;50.982;-3.222;2023-07-31T14:32:38;10;9;
70915;PMS5003;58557;50.982;-3.222;2023-07-31T14:35:04;9;8;
70915;PMS5003;58557;50.982;-3.222;2023-07-31T14:39:55;6;4;
70915;PMS5003;58557;50.982;-3.222;2023-07-31T14:42:20;8;6;
70915;PMS5003;58557;50.982;-3.222;2023-07-31T14:44:46;6;6;
70915;PMS5003;58557;50.982;-3.222;2023-07-31T14:47:11;10;7;
70915;PMS5003;58557;50.982;-3.222;2023-07-31T14:49:37;6;5;
70915;PMS5003;58557;50.982;-3.222;2023-07-31T14:52:03;7;5;
70915;PMS5003;58557;50.982;-3.222;2023-07-31T14:54:28;6;5;
70915;PMS5003;58557;50.982;-3.222;2023-07-31T14:56:54;9;8;
70915;PMS5003;58557;50.982;-3.222;2023-07-31T14:59:19;8;6;
70915;PMS5003;58557;50.982;-3.222;2023-07-31T15:01:45;10;10;
70915;PMS5003;58557;50.982;-3.222;2023-07-31T15:04:10;10;9;
70915;PMS5003;58557;50.982;-3.222;2023-07-31T15:06:40;11;9;
70915;PMS5003;58557;50.982;-3.222;2023-07-31T15:09:01;11;9;
70915;PMS5003;58557;50.982;-3.222;2023-07-31T15:11:26;10;10;
70915;PMS5003;58557;50.982;-3.222;2023-07-31T15:13:51;9;8;
70915;PMS5003;58557;50.982;-3.222;2023-07-31T15:16:17;10;8;
70915;PMS5003;58557;50.982;-3.222;2023-07-31T15:18:42;10;10;
70915;PMS5003;58557;50.982;-3.222;2023-07-31T15:21:08;10;9;
70915;PMS5003;58557;50.982;-3.222;2023-07-31T15:23:34;6;6;
70915;PMS5003;58557;50.982;-3.222;2023-07-31T15:25:59;8;6;
70915;PMS5003;58557;50.982;-3.222;2023-07-31T15:28:24;10;8;
70915;PMS5003;58557;50.982;-3.222;2023-07-31T15:30:50;7;6;
70915;PMS5003;58557;50.982;-3.222;2023-07-31T15:33:15;10;6;
70915;PMS5003;58557;50.982;-3.222;2023-07-31T15:35:41;10;8;
70915;PMS5003;58557;50.982;-3.222;2023-07-31T15:38:07;8;8;
70915;PMS5003;58557;50.982;-3.222;2023-07-31T15:40:32;8;8;
70915;PMS5003;58557;50.982;-3.222;2023-07-31T15:42:58;10;8;
70915;PMS5003;58557;50.982;-3.222;2023-07-31T15:45:23;14;13;
70915;PMS5003;58557;50.982;-3.222;2023-07-31T15:47:49;9;9;
70915;PMS5003;58557;50.982;-3.222;2023-07-31T15:50:14;6;6;
70915;PMS5003;58557;50.982;-3.222;2023-07-31T15:52:39;7;6;
70915;PMS5003;58557;50.982;-3.222;2023-07-31T15:55:05;15;14;
70915;PMS5003;58557;50.982;-3.222;2023-07-31T15:57:30;13;10;
70915;PMS5003;58557;50.982;-3.222;2023-07-31T15:59:55;10;10;
70915;PMS5003;58557;50.982;-3.222;2023-07-31T16:02:20;10;10;
70915;PMS5003;58557;50.982;-3.222;2023-07-31T16:04:45;7;7;
70915;PMS5003;58557;50.982;-3.222;2023-07-31T16:07:11;11;8;
70915;PMS5003;58557;50.982;-3.222;2023-07-31T16:09:36;7;7;
70915;PMS5003;58557;50.982;-3.222;2023-07-31T16:12:02;10;7;
70915;PMS5003;58557;50.982;-3.222;2023-07-31T16:14:27;6;6;
70915;PMS5003;58557;50.982;-3.222;2023-07-31T16:16:52;7;7;
70915;PMS5003;58557;50.982;-3.222;2023-07-31T16:19:18;7;6;
70915;PMS5003;58557;50.982;-3.222;2023-07-31T16:21:44;10;7;
70915;PMS5003;58557;50.982;-3.222;2023-07-31T16:24:09;11;11;